Ana Sayfa
METAR-TAF:

METAR-TAF

Havaalanları :

Demopolis, Alabama, Amerika Birleşik Devletleri

Enlem: 32-27-50N, Boylam: 087-57-15W, yükseklik: 34 m

Güncel hava durumu gözlemi

Rapor saat 22:55 UTC de 19 dakika önce yapıldı.
Rüzgar batı/kuzeybatıdan 4 kt
Sıcaklık 23°C
Nem 94%
Basınç 1016 hPa
Görüş mesafesi: 11.3 km
6500 ft yükseklikte parçalı çok bulutlu
9000 ft yükseklikte çok bulutlu
yağmur

METAR: KDYA 212255Z AUTO 29004KT 7SM RA BKN065 OVC090 23/22 A3001 RMK AO2 T02270223

Saat: 18:14 (23:14 UTC)


TAF: eksik

4.000'den fazla havaalanı için hava durumu gözlemleri ve tahminleri (METAR ve TAF raporları).

Kullanılabilir istasyonlar harita üzerinde sarı ve kırmızı noktalarla gösterilir.

İstasyonun adını görmek için fareyi noktanın üzerinde gezdirin.

Sonrasında hava gözlem ve tahminlerini görmek için tıklayın.

Haritayı değiştirmek için: yaklaştırmak için siyah artı işaretli yeşil düğmeye ve uzaklaştırmak için de eksi işaretli düğmeye hızla tıklayın; bitişik haritalar için yeşil okları kullanın.


METAR-TAF: